Time;durP1;ratioP1;P1;durP2;ratioP2;P2;SDS_P1;SDS_P2;PMS_P1;PMS_P2;Temp;Humidity;BMP_temperature;BMP_pressure;BME280_temperature;BME280_humidity;BME280_pressure;Samples;Min_cycle;Max_cycle;Signal;HPM_P1;HPM_P2
2023/02/02 00:02:04;;;;;;;2.88;0.85;;;8.50;89.90;;;;;;5027801;28;20025;-69
2023/02/02 00:04:32;;;;;;;1.80;0.82;;;8.50;89.90;;;;;;5026016;28;20034;-70
2023/02/02 00:06:59;;;;;;;0.93;0.90;;;8.50;89.90;;;;;;5021612;28;20044;-69
2023/02/02 00:09:29;;;;;;;1.38;0.80;;;8.50;89.80;;;;;;5022591;28;20056;-69
2023/02/02 00:11:59;;;;;;;2.95;1.00;;;8.50;89.80;;;;;;5025995;28;20025;-68
2023/02/02 00:14:25;;;;;;;2.15;0.90;;;8.60;89.80;;;;;;5024030;28;20022;-68
2023/02/02 00:16:55;;;;;;;4.93;1.30;;;8.50;89.90;;;;;;5024691;28;20026;-69
2023/02/02 00:19:29;;;;;;;4.32;1.02;;;8.50;90.00;;;;;;5025155;28;20037;-69
2023/02/02 00:21:55;;;;;;;1.45;0.70;;;8.60;90.00;;;;;;5025712;28;20037;-69
2023/02/02 00:24:21;;;;;;;0.80;0.80;;;8.60;90.00;;;;;;5025042;28;20021;-69
2023/02/02 00:26:58;;;;;;;0.90;0.60;;;8.60;89.90;;;;;;5023207;28;20094;-68
2023/02/02 00:29:27;;;;;;;2.00;1.05;;;8.60;89.90;;;;;;5021332;28;20030;-68
2023/02/02 00:31:53;;;;;;;3.08;1.15;;;8.60;89.90;;;;;;5022143;28;20488;-68
2023/02/02 00:34:19;;;;;;;3.03;1.40;;;8.60;89.90;;;;;;5024966;28;20028;-69
2023/02/02 00:36:45;;;;;;;3.10;0.95;;;8.60;90.00;;;;;;5024917;28;20072;-69
2023/02/02 00:39:15;;;;;;;4.22;1.98;;;8.60;90.00;;;;;;5022790;28;20444;-69
2023/02/02 00:41:41;;;;;;;1.42;0.75;;;8.60;90.10;;;;;;5017555;28;20632;-69
2023/02/02 00:46:51;;;;;;;3.20;1.45;;;8.60;90.10;;;;;;5026685;28;20052;-69
2023/02/02 00:49:16;;;;;;;2.05;1.42;;;8.60;90.20;;;;;;5024670;28;20029;-68
2023/02/02 00:51:42;;;;;;;3.63;1.00;;;8.60;90.20;;;;;;5027182;28;20513;-69
2023/02/02 00:54:08;;;;;;;3.15;1.08;;;8.60;90.30;;;;;;5026552;28;20025;-68
2023/02/02 00:56:33;;;;;;;3.05;0.90;;;8.50;90.20;;;;;;5025363;28;20483;-69
2023/02/02 00:58:59;;;;;;;2.80;1.27;;;8.50;90.30;;;;;;5023548;28;20041;-69
2023/02/02 01:01:24;;;;;;;1.40;0.88;;;8.50;90.30;;;;;;5027283;28;20056;-68
2023/02/02 01:03:51;;;;;;;1.15;0.80;;;8.50;90.30;;;;;;5027564;28;20025;-68
2023/02/02 01:06:17;;;;;;;4.88;1.23;;;8.50;90.40;;;;;;5028780;28;20037;-68
2023/02/02 01:08:43;;;;;;;2.20;1.27;;;8.50;90.40;;;;;;5026128;28;20033;-70
2023/02/02 01:11:09;;;;;;;4.82;1.40;;;8.50;90.40;;;;;;5027437;28;20044;-68
2023/02/02 01:13:36;;;;;;;1.75;1.08;;;8.50;90.40;;;;;;5025878;28;20042;-69
2023/02/02 01:16:02;;;;;;;2.63;0.95;;;8.60;90.40;;;;;;5023841;28;20469;-68
2023/02/02 01:18:28;;;;;;;3.60;0.90;;;8.60;90.30;;;;;;5024735;28;20041;-67
2023/02/02 01:21:05;;;;;;;3.67;0.98;;;8.60;90.30;;;;;;5023076;28;20112;-68
2023/02/02 01:23:31;;;;;;;3.50;1.17;;;8.60;90.30;;;;;;5023908;28;20100;-70
2023/02/02 01:25:59;;;;;;;1.75;0.85;;;8.60;90.40;;;;;;5027257;28;20488;-68
2023/02/02 01:28:25;;;;;;;2.00;1.38;;;8.60;90.40;;;;;;5025349;28;20104;-69
2023/02/02 01:30:51;;;;;;;4.25;0.95;;;8.60;90.40;;;;;;5024781;28;20029;-68
2023/02/02 01:33:18;;;;;;;1.85;0.70;;;8.60;90.40;;;;;;5026632;28;20034;-68
2023/02/02 01:35:54;;;;;;;2.28;1.13;;;8.60;90.40;;;;;;5027419;28;20018;-68
2023/02/02 01:38:22;;;;;;;0.70;0.70;;;8.60;90.40;;;;;;5029168;28;20024;-69
2023/02/02 01:40:55;;;;;;;3.35;0.93;;;8.60;90.70;;;;;;5026902;28;20030;-69
2023/02/02 01:43:40;;;;;;;2.42;1.40;;;8.50;90.40;;;;;;5024096;28;20128;-69
2023/02/02 01:46:10;;;;;;;1.45;0.98;;;8.50;90.40;;;;;;5026923;28;20030;-68
2023/02/02 01:48:36;;;;;;;3.58;1.20;;;8.50;90.50;;;;;;5030026;28;20017;-70
2023/02/02 01:51:06;;;;;;;3.28;0.90;;;8.50;90.50;;;;;;5028910;28;20043;-69
2023/02/02 01:53:33;;;;;;;1.63;0.80;;;8.50;90.50;;;;;;5029252;28;20026;-68
2023/02/02 01:56:00;;;;;;;1.10;0.90;;;8.50;90.50;;;;;;5029913;28;20108;-68
2023/02/02 01:58:30;;;;;;;1.65;0.80;;;8.50;90.50;;;;;;5028887;28;20025;-70
2023/02/02 02:00:56;;;;;;;2.03;0.95;;;8.50;90.50;;;;;;5027581;28;20034;-69
2023/02/02 02:03:24;;;;;;;1.95;0.93;;;8.50;90.40;;;;;;5030392;28;20033;-68
2023/02/02 02:05:51;;;;;;;1.63;0.90;;;8.50;90.50;;;;;;5030041;28;20041;-68
2023/02/02 02:08:29;;;;;;;4.05;1.30;;;8.50;90.50;;;;;;5028610;28;20018;-68
2023/02/02 02:10:55;;;;;;;1.38;1.00;;;8.50;90.40;;;;;;5026831;28;20033;-69
2023/02/02 02:16:17;;;;;;;1.50;1.02;;;8.50;90.50;;;;;;5028891;28;20033;-69
2023/02/02 02:16:47;;;;;;;1.98;1.10;;;8.50;90.50;;;;;;5029610;28;20768;-68
2023/02/02 02:26:34;;;;;;;1.65;0.95;;;8.40;90.50;;;;;;5031027;28;20079;-68
2023/02/02 02:29:21;;;;;;;1.02;0.90;;;8.40;90.50;;;;;;5027168;28;20030;-68
2023/02/02 02:32:13;;;;;;;1.70;0.90;;;8.40;90.50;;;;;;5028327;28;20033;-69
2023/02/02 02:35:03;;;;;;;1.08;0.70;;;8.40;90.60;;;;;;5028501;28;20018;-68
2023/02/02 02:37:58;;;;;;;1.52;0.80;;;8.30;90.60;;;;;;5029464;28;20049;-69
2023/02/02 02:40:55;;;;;;;1.60;0.70;;;8.30;90.50;;;;;;5027528;28;20128;-70
2023/02/02 02:43:26;;;;;;;1.73;0.70;;;8.30;90.60;;;;;;5027428;28;20044;-68
2023/02/02 02:45:52;;;;;;;2.47;0.82;;;8.20;90.60;;;;;;5028279;28;20129;-68
2023/02/02 02:48:18;;;;;;;1.38;0.88;;;8.20;90.60;;;;;;5029843;28;20029;-68
2023/02/02 02:50:43;;;;;;;1.25;0.80;;;8.20;90.60;;;;;;5027202;28;20026;-69
2023/02/02 02:53:16;;;;;;;0.50;0.50;;;8.10;90.60;;;;;;5030169;28;20043;-69
2023/02/02 02:56:01;;;;;;;1.88;0.80;;;8.20;90.70;;;;;;5026612;28;20033;-69
2023/02/02 02:58:40;;;;;;;1.15;0.85;;;8.20;90.70;;;;;;5025269;28;20041;-69
2023/02/02 03:01:20;;;;;;;1.60;0.80;;;8.20;90.70;;;;;;5026848;28;20025;-68
2023/02/02 03:04:04;;;;;;;1.73;0.90;;;8.20;90.60;;;;;;5028696;28;20025;-70
2023/02/02 03:06:51;;;;;;;1.80;0.70;;;8.20;90.70;;;;;;5029547;28;20714;-68
2023/02/02 03:09:33;;;;;;;0.60;0.60;;;8.20;90.70;;;;;;5026715;28;20072;-69
2023/02/02 03:11:59;;;;;;;0.77;0.77;;;8.20;90.70;;;;;;5027601;28;20030;-70
2023/02/02 03:14:25;;;;;;;1.02;0.70;;;8.20;90.80;;;;;;5029565;28;20372;-68
2023/02/02 03:16:51;;;;;;;1.95;0.80;;;8.20;90.70;;;;;;5026539;28;20040;-69
2023/02/02 03:19:17;;;;;;;1.17;0.90;;;8.20;90.80;;;;;;5026099;28;20120;-69
2023/02/02 03:21:43;;;;;;;0.82;0.80;;;8.20;90.80;;;;;;5028820;28;20022;-69
2023/02/02 03:24:09;;;;;;;1.05;0.95;;;8.30;90.80;;;;;;5027249;28;20384;-69
2023/02/02 03:26:34;;;;;;;3.17;1.40;;;8.30;90.70;;;;;;5027568;28;20427;-71
2023/02/02 03:29:01;;;;;;;1.40;0.85;;;8.30;90.80;;;;;;5025894;28;20025;-68
2023/02/02 03:31:27;;;;;;;2.38;0.80;;;8.30;90.70;;;;;;5028754;28;20100;-69
2023/02/02 03:33:54;;;;;;;2.63;1.30;;;8.30;90.70;;;;;;5028062;28;20029;-68
2023/02/02 03:36:20;;;;;;;2.15;0.90;;;8.30;90.70;;;;;;5029805;28;20016;-68
2023/02/02 03:38:45;;;;;;;1.35;0.80;;;8.30;90.70;;;;;;5028621;28;20468;-68
2023/02/02 03:41:11;;;;;;;1.45;0.80;;;8.40;90.70;;;;;;5029168;28;20026;-70
2023/02/02 03:43:36;;;;;;;2.08;1.00;;;8.30;90.70;;;;;;5028204;28;20025;-68
2023/02/02 03:46:04;;;;;;;0.70;0.70;;;8.40;90.70;;;;;;5029421;28;20030;-68
2023/02/02 03:48:30;;;;;;;2.72;1.02;;;8.40;90.80;;;;;;5029568;28;20020;-67
2023/02/02 03:50:56;;;;;;;3.40;1.23;;;8.40;90.80;;;;;;5024196;28;20881;-69
2023/02/02 03:53:22;;;;;;;2.15;0.90;;;8.40;90.80;;;;;;5027278;28;20029;-68
2023/02/02 03:55:48;;;;;;;2.35;1.20;;;8.40;90.80;;;;;;5027460;28;20403;-68
2023/02/02 03:58:13;;;;;;;1.60;0.90;;;8.40;90.80;;;;;;5028590;28;20029;-68
2023/02/02 04:00:39;;;;;;;0.85;0.85;;;8.40;90.70;;;;;;5025031;28;20037;-67
2023/02/02 04:03:04;;;;;;;3.92;1.00;;;8.40;90.80;;;;;;5028300;28;20040;-67
2023/02/02 04:05:30;;;;;;;6.82;1.75;;;8.40;90.70;;;;;;5027001;28;20025;-68
2023/02/02 04:07:55;;;;;;;4.03;1.48;;;8.40;90.80;;;;;;5027617;28;20026;-67
2023/02/02 04:10:21;;;;;;;1.88;1.00;;;8.40;90.80;;;;;;5026988;28;20055;-67
2023/02/02 04:12:47;;;;;;;2.80;1.17;;;8.40;90.80;;;;;;5029611;28;20033;-67
2023/02/02 04:15:12;;;;;;;2.55;1.20;;;8.40;90.80;;;;;;5026745;28;20026;-67
2023/02/02 04:17:38;;;;;;;2.35;1.10;;;8.50;90.80;;;;;;5026268;28;20052;-67
2023/02/02 04:20:04;;;;;;;1.35;0.80;;;8.50;90.80;;;;;;5024261;28;20040;-67
2023/02/02 04:22:30;;;;;;;3.22;1.05;;;8.50;90.80;;;;;;5026202;28;20387;-67
2023/02/02 04:24:56;;;;;;;3.85;1.27;;;8.50;90.80;;;;;;5023620;28;20025;-68
2023/02/02 04:27:21;;;;;;;3.65;1.55;;;8.50;90.80;;;;;;5027062;28;20040;-68
2023/02/02 04:29:47;;;;;;;6.43;1.85;;;8.50;90.80;;;;;;5023997;28;20030;-69
2023/02/02 04:32:16;;;;;;;2.53;1.17;;;8.50;90.80;;;;;;5027443;28;20043;-68
2023/02/02 04:34:42;;;;;;;3.88;1.30;;;8.60;90.80;;;;;;5028874;28;20106;-68
2023/02/02 04:37:08;;;;;;;3.75;1.17;;;8.60;90.80;;;;;;5022348;28;20120;-68
2023/02/02 04:39:34;;;;;;;1.30;0.90;;;8.60;90.80;;;;;;5020071;28;20392;-68
2023/02/02 04:41:59;;;;;;;3.22;1.35;;;8.60;90.80;;;;;;5027370;28;20030;-69
2023/02/02 04:44:25;;;;;;;3.53;1.55;;;8.60;90.80;;;;;;5027250;28;20039;-68
2023/02/02 04:46:51;;;;;;;1.65;1.00;;;8.60;90.80;;;;;;5026159;28;20043;-68
2023/02/02 04:49:16;;;;;;;3.80;1.55;;;8.60;90.80;;;;;;5024877;28;20044;-67
2023/02/02 04:51:42;;;;;;;2.45;1.10;;;8.60;90.80;;;;;;5026231;28;20109;-68
2023/02/02 04:54:08;;;;;;;3.70;1.23;;;8.60;90.80;;;;;;5026411;28;20013;-68
2023/02/02 04:56:34;;;;;;;4.43;1.30;;;8.60;90.80;;;;;;5027234;28;20084;-67
2023/02/02 04:58:59;;;;;;;3.88;1.48;;;8.60;90.80;;;;;;5022779;28;20369;-68
2023/02/02 05:01:25;;;;;;;3.42;1.13;;;8.60;90.80;;;;;;5025956;28;20104;-68
2023/02/02 05:03:51;;;;;;;2.08;1.00;;;8.70;90.80;;;;;;5025480;28;20026;-68
2023/02/02 05:06:18;;;;;;;3.58;1.33;;;8.70;90.70;;;;;;5028682;28;20111;-70
2023/02/02 05:08:44;;;;;;;1.60;1.02;;;8.70;90.70;;;;;;5023423;28;20021;-67
2023/02/02 05:11:12;;;;;;;2.13;1.13;;;8.70;90.70;;;;;;5025087;28;20056;-68
2023/02/02 05:13:39;;;;;;;0.80;0.80;;;8.70;90.70;;;;;;5026145;28;20098;-68
2023/02/02 05:16:05;;;;;;;2.42;1.13;;;8.70;90.70;;;;;;5026811;28;20028;-69
2023/02/02 05:18:31;;;;;;;3.33;1.33;;;8.80;90.70;;;;;;5024061;28;20033;-68
2023/02/02 05:21:01;;;;;;;3.63;1.13;;;8.80;90.70;;;;;;5025629;28;20091;-68
2023/02/02 05:23:27;;;;;;;2.50;1.13;;;8.80;90.70;;;;;;5032075;28;20552;-68
2023/02/02 05:25:54;;;;;;;3.40;1.25;;;8.80;90.70;;;;;;5029048;28;20047;-68
2023/02/02 05:28:21;;;;;;;2.80;1.08;;;8.80;90.70;;;;;;5031312;28;20075;-69
2023/02/02 05:30:47;;;;;;;3.22;1.30;;;8.80;90.70;;;;;;5028573;28;20021;-68
2023/02/02 05:33:13;;;;;;;4.95;1.25;;;8.80;90.70;;;;;;5029946;28;20044;-68
2023/02/02 05:35:39;;;;;;;2.97;1.25;;;8.80;90.60;;;;;;5028384;28;20472;-68
2023/02/02 05:38:04;;;;;;;4.00;1.15;;;8.80;90.70;;;;;;5028245;28;20471;-70
2023/02/02 05:40:30;;;;;;;2.30;1.02;;;8.80;90.70;;;;;;5027585;28;20104;-68
2023/02/02 05:42:55;;;;;;;2.58;0.88;;;8.80;90.60;;;;;;5029899;28;20025;-68
2023/02/02 05:45:21;;;;;;;4.22;1.30;;;8.90;90.70;;;;;;5029597;28;20045;-69
2023/02/02 05:47:47;;;;;;;2.78;1.45;;;8.80;90.70;;;;;;5030609;28;20056;-68
2023/02/02 05:50:13;;;;;;;2.97;1.10;;;8.80;90.70;;;;;;5028538;28;20068;-68
2023/02/02 05:52:40;;;;;;;1.55;1.00;;;8.90;90.70;;;;;;5030398;28;20033;-68
2023/02/02 05:55:06;;;;;;;5.50;1.45;;;8.90;90.70;;;;;;5028208;28;20116;-68
2023/02/02 05:57:32;;;;;;;1.73;1.05;;;8.90;90.60;;;;;;5029951;28;20029;-68
2023/02/02 05:59:57;;;;;;;7.03;1.15;;;8.90;90.70;;;;;;5029062;28;20083;-69
2023/02/02 06:02:23;;;;;;;1.00;0.80;;;8.90;90.70;;;;;;5031988;28;20029;-68
2023/02/02 06:04:48;;;;;;;1.08;0.75;;;8.90;90.70;;;;;;5029157;28;20022;-68
2023/02/02 06:07:14;;;;;;;6.38;1.30;;;8.90;90.70;;;;;;5029165;28;20037;-69
2023/02/02 06:09:39;;;;;;;2.30;1.48;;;8.90;90.60;;;;;;5026416;28;20049;-69
2023/02/02 06:12:05;;;;;;;1.33;1.10;;;8.90;90.70;;;;;;5028822;28;20086;-68
2023/02/02 06:14:31;;;;;;;2.90;1.35;;;8.90;90.70;;;;;;5027695;28;20032;-68
2023/02/02 06:16:56;;;;;;;3.72;1.73;;;8.90;90.70;;;;;;5028028;28;20025;-68
2023/02/02 06:19:22;;;;;;;1.65;1.17;;;8.90;90.70;;;;;;5026308;28;20083;-68
2023/02/02 06:21:48;;;;;;;2.17;1.08;;;8.90;90.70;;;;;;5030675;28;20100;-69
2023/02/02 06:24:13;;;;;;;2.30;1.10;;;8.90;90.70;;;;;;5030792;28;20044;-68
2023/02/02 06:26:39;;;;;;;2.58;1.30;;;9.00;90.70;;;;;;5025902;28;20510;-69
2023/02/02 06:29:05;;;;;;;7.63;1.35;;;9.00;90.60;;;;;;5026951;28;20407;-68
2023/02/02 06:31:32;;;;;;;6.07;1.20;;;8.90;90.60;;;;;;5031458;28;20029;-68
2023/02/02 06:33:58;;;;;;;3.33;1.15;;;8.90;90.70;;;;;;5028366;28;20115;-68
2023/02/02 06:36:26;;;;;;;3.47;1.27;;;8.90;90.70;;;;;;5030283;28;20105;-68
2023/02/02 06:38:53;;;;;;;4.15;1.40;;;8.90;90.70;;;;;;5025608;28;20029;-68
2023/02/02 06:41:19;;;;;;;8.77;1.85;;;8.90;90.70;;;;;;5030039;28;20099;-68
2023/02/02 06:43:45;;;;;;;1.55;1.02;;;8.90;90.80;;;;;;5032034;28;20109;-68
2023/02/02 06:46:11;;;;;;;1.40;0.98;;;8.90;90.70;;;;;;5028917;28;20032;-68
2023/02/02 06:48:37;;;;;;;2.22;1.33;;;8.90;90.80;;;;;;5028914;28;20104;-68
2023/02/02 06:51:04;;;;;;;6.03;1.58;;;8.90;90.80;;;;;;5028252;28;20026;-68
2023/02/02 06:53:30;;;;;;;2.80;1.17;;;8.90;90.80;;;;;;5030342;28;20018;-69
2023/02/02 06:56:00;;;;;;;2.58;1.42;;;8.90;90.80;;;;;;5031483;28;20260;-68
2023/02/02 06:58:26;;;;;;;2.90;1.00;;;8.80;90.80;;;;;;5025261;28;20032;-67
2023/02/02 07:00:52;;;;;;;3.55;1.23;;;8.90;90.90;;;;;;5024403;28;20025;-68
2023/02/02 07:03:20;;;;;;;4.00;1.23;;;8.90;90.80;;;;;;5028620;28;20531;-68
2023/02/02 07:05:46;;;;;;;2.40;0.93;;;8.80;90.90;;;;;;5028682;28;20025;-68
2023/02/02 07:08:12;;;;;;;3.83;1.05;;;8.80;90.90;;;;;;5028117;28;20033;-67
2023/02/02 07:10:38;;;;;;;1.60;0.80;;;8.90;91.00;;;;;;5026050;28;20029;-67
2023/02/02 07:13:05;;;;;;;2.15;1.10;;;8.80;91.00;;;;;;5028203;28;20108;-68
2023/02/02 07:15:34;;;;;;;4.20;1.38;;;8.80;91.00;;;;;;5028639;28;20029;-68
2023/02/02 07:18:00;;;;;;;5.93;1.42;;;8.80;91.00;;;;;;5031551;28;20577;-67
2023/02/02 07:20:26;;;;;;;5.80;1.52;;;8.80;91.10;;;;;;5026261;28;20025;-68
2023/02/02 07:22:52;;;;;;;5.45;1.73;;;8.80;91.10;;;;;;5030355;28;20076;-68
2023/02/02 07:25:17;;;;;;;2.17;1.02;;;8.80;91.10;;;;;;5029401;28;20078;-68
2023/02/02 07:27:43;;;;;;;2.85;1.38;;;8.80;91.20;;;;;;5020433;28;20026;-69
2023/02/02 07:30:09;;;;;;;2.70;1.17;;;8.80;91.20;;;;;;5024386;28;20024;-68
2023/02/02 07:32:35;;;;;;;2.97;1.20;;;8.80;91.20;;;;;;5022578;28;20080;-68
2023/02/02 07:35:01;;;;;;;4.00;1.65;;;8.80;91.20;;;;;;5024511;28;20430;-68
2023/02/02 07:37:26;;;;;;;2.30;1.45;;;8.80;91.20;;;;;;5026858;28;20029;-69
2023/02/02 07:39:52;;;;;;;2.97;1.25;;;8.80;91.20;;;;;;5025606;28;20460;-69
2023/02/02 07:42:17;;;;;;;1.63;1.00;;;8.80;91.20;;;;;;5026375;28;20033;-68
2023/02/02 07:44:43;;;;;;;4.80;1.30;;;8.80;91.10;;;;;;5030537;28;20029;-68
2023/02/02 07:47:08;;;;;;;4.70;1.58;;;8.80;91.40;;;;;;5024529;28;20087;-70
2023/02/02 07:49:34;;;;;;;4.05;1.13;;;8.80;91.20;;;;;;5024750;28;20076;-69
2023/02/02 07:52:00;;;;;;;5.57;1.45;;;8.90;91.30;;;;;;5024994;28;20061;-68
2023/02/02 07:54:25;;;;;;;1.67;1.00;;;8.90;91.20;;;;;;5025628;28;20033;-68
2023/02/02 07:56:51;;;;;;;1.88;1.23;;;8.90;91.20;;;;;;5027411;28;20037;-69
2023/02/02 07:59:16;;;;;;;2.40;1.33;;;8.90;91.20;;;;;;5025608;28;20048;-69
2023/02/02 08:01:42;;;;;;;1.98;1.25;;;8.90;91.20;;;;;;5025849;28;20034;-68
2023/02/02 08:04:08;;;;;;;2.42;1.40;;;8.90;91.20;;;;;;5027365;28;20033;-69
2023/02/02 08:06:36;;;;;;;3.83;1.10;;;8.90;91.20;;;;;;5028012;28;20038;-68
2023/02/02 08:09:04;;;;;;;2.88;1.17;;;8.90;91.30;;;;;;5028084;28;20513;-69
2023/02/02 08:11:29;;;;;;;5.05;1.23;;;8.90;91.30;;;;;;5026143;28;20511;-69
2023/02/02 08:13:57;;;;;;;2.50;0.98;;;8.90;91.30;;;;;;5028031;28;20022;-69
2023/02/02 08:16:24;;;;;;;3.45;1.92;;;8.90;91.20;;;;;;5026815;28;20044;-69
2023/02/02 08:18:50;;;;;;;1.70;1.08;;;8.90;91.30;;;;;;5029066;28;20049;-68
2023/02/02 08:21:17;;;;;;;2.28;1.30;;;8.80;91.30;;;;;;5023740;28;20041;-68
2023/02/02 08:23:44;;;;;;;2.17;1.23;;;8.80;91.30;;;;;;5023409;28;20032;-68
2023/02/02 08:26:21;;;;;;;1.60;1.30;;;8.90;91.40;;;;;;5024776;28;20495;-68
2023/02/02 08:28:51;;;;;;;3.60;1.17;;;8.90;91.40;;;;;;5025079;28;20029;-69
2023/02/02 08:31:20;;;;;;;3.22;1.10;;;8.90;91.40;;;;;;5026450;28;20432;-69
2023/02/02 08:33:46;;;;;;;5.85;1.63;;;8.80;91.40;;;;;;5025043;28;20120;-68
2023/02/02 08:36:14;;;;;;;2.70;1.60;;;8.90;91.40;;;;;;5024567;28;20109;-69
2023/02/02 08:38:40;;;;;;;1.67;0.98;;;8.90;91.40;;;;;;5042133;28;20461;-69
2023/02/02 08:41:07;;;;;;;1.88;1.08;;;8.90;91.40;;;;;;5023517;28;20025;-69
2023/02/02 08:43:33;;;;;;;2.17;1.48;;;8.90;91.40;;;;;;5024284;28;20021;-69
2023/02/02 08:45:58;;;;;;;2.00;1.00;;;8.90;91.40;;;;;;5024369;28;20033;-69
2023/02/02 08:48:24;;;;;;;2.05;1.05;;;8.90;91.40;;;;;;5025623;28;20026;-68
2023/02/02 08:50:57;;;;;;;10.43;1.35;;;9.00;91.40;;;;;;5023570;28;20443;-69
2023/02/02 08:53:24;;;;;;;1.73;1.20;;;9.00;91.40;;;;;;5026709;28;20422;-70
2023/02/02 08:56:05;;;;;;;4.78;1.80;;;9.00;91.30;;;;;;5027092;28;20036;-68
2023/02/02 08:58:32;;;;;;;2.42;1.17;;;9.00;91.30;;;;;;5029084;28;20395;-68
2023/02/02 09:01:10;;;;;;;3.63;1.10;;;9.00;91.30;;;;;;5028469;28;20060;-69
2023/02/02 09:03:38;;;;;;;13.32;2.25;;;9.00;91.30;;;;;;5027386;28;20029;-69
2023/02/02 09:06:06;;;;;;;4.07;1.80;;;9.00;91.30;;;;;;5028523;28;20113;-69
2023/02/02 09:08:32;;;;;;;2.15;1.10;;;9.00;91.40;;;;;;5025432;28;20067;-69
2023/02/02 09:11:09;;;;;;;2.67;0.85;;;9.00;91.40;;;;;;5023351;28;20025;-70
2023/02/02 09:13:36;;;;;;;7.88;1.40;;;9.00;91.30;;;;;;5031521;28;20086;-69
2023/02/02 09:16:04;;;;;;;2.28;1.10;;;9.10;91.30;;;;;;5027350;28;20526;-69
2023/02/02 09:18:30;;;;;;;3.78;1.58;;;9.10;91.20;;;;;;5028099;28;20067;-69
2023/02/02 09:21:01;;;;;;;1.20;1.10;;;9.20;91.20;;;;;;5027580;28;20424;-68
2023/02/02 09:23:29;;;;;;;4.68;1.48;;;9.20;91.50;;;;;;5029897;28;20569;-69
2023/02/02 09:25:55;;;;;;;10.23;1.60;;;9.20;91.20;;;;;;5029904;28;20071;-69
2023/02/02 09:28:20;;;;;;;3.08;1.30;;;9.20;91.20;;;;;;5030610;28;20480;-68
2023/02/02 09:30:46;;;;;;;1.52;1.15;;;9.20;91.20;;;;;;5029578;28;20014;-68
2023/02/02 09:33:11;;;;;;;1.77;1.10;;;9.20;91.20;;;;;;5027880;28;20025;-69
2023/02/02 09:35:37;;;;;;;2.92;1.00;;;9.20;91.20;;;;;;5030886;28;20029;-68
2023/02/02 09:38:03;;;;;;;1.80;0.80;;;9.20;91.20;;;;;;5030125;28;20017;-68
2023/02/02 09:40:31;;;;;;;3.50;1.20;;;9.30;91.20;;;;;;5027062;28;20022;-68
2023/02/02 09:43:12;;;;;;;3.38;1.33;;;9.30;91.10;;;;;;5029020;28;20116;-69
2023/02/02 09:45:46;;;;;;;2.33;0.90;;;9.40;91.10;;;;;;5027173;28;20033;-69
2023/02/02 09:48:33;;;;;;;3.63;1.70;;;9.40;91.00;;;;;;5029507;28;20037;-69
2023/02/02 09:51:21;;;;;;;4.18;1.50;;;9.40;90.90;;;;;;5028267;28;20025;-69
2023/02/02 09:53:55;;;;;;;3.72;1.30;;;9.40;90.90;;;;;;5028408;28;20519;-69
2023/02/02 09:56:33;;;;;;;2.67;1.00;;;9.40;90.80;;;;;;5027035;28;20087;-68
2023/02/02 09:59:00;;;;;;;2.15;0.98;;;9.50;90.90;;;;;;5025724;28;20037;-69
2023/02/02 10:01:31;;;;;;;3.42;1.00;;;9.50;90.90;;;;;;5028799;28;20034;-68
2023/02/02 10:04:03;;;;;;;2.40;1.10;;;9.40;90.80;;;;;;5027613;28;20033;-69
2023/02/02 10:06:41;;;;;;;2.58;1.55;;;9.50;90.80;;;;;;5028621;28;20077;-68
2023/02/02 10:09:09;;;;;;;1.88;1.10;;;9.50;90.80;;;;;;5026187;28;20522;-68
2023/02/02 10:11:47;;;;;;;3.00;1.45;;;9.50;90.80;;;;;;5029214;28;20025;-68
2023/02/02 10:14:28;;;;;;;2.97;1.08;;;9.50;90.80;;;;;;5029515;28;20483;-70
2023/02/02 10:16:59;;;;;;;4.05;1.38;;;9.50;90.70;;;;;;5030982;28;20021;-68
2023/02/02 10:19:28;;;;;;;2.72;1.40;;;9.50;90.70;;;;;;5026851;28;20051;-68
2023/02/02 10:22:06;;;;;;;4.03;1.67;;;9.60;90.80;;;;;;5026720;28;20026;-70
2023/02/02 10:24:34;;;;;;;5.65;1.48;;;9.60;91.00;;;;;;5043992;28;20557;-69
2023/02/02 10:27:05;;;;;;;1.67;0.98;;;9.60;90.60;;;;;;5027983;28;20038;-68
2023/02/02 10:29:55;;;;;;;1.75;1.05;;;9.60;90.60;;;;;;5025428;28;20018;-68
2023/02/02 10:32:31;;;;;;;2.05;1.02;;;9.60;90.60;;;;;;5028229;28;20033;-68
2023/02/02 10:35:18;;;;;;;1.80;0.80;;;9.60;90.60;;;;;;5031940;28;20507;-69
2023/02/02 10:38:06;;;;;;;5.28;1.10;;;9.70;90.60;;;;;;5030101;28;20435;-69
2023/02/02 10:40:43;;;;;;;3.58;1.75;;;9.70;90.60;;;;;;5026598;28;20025;-69
2023/02/02 10:43:45;;;;;;;1.42;0.90;;;9.70;90.60;;;;;;5029193;28;20033;-68
2023/02/02 10:46:32;;;;;;;3.60;1.30;;;9.60;90.60;;;;;;5029888;28;20060;-69
2023/02/02 10:49:25;;;;;;;1.40;0.90;;;9.60;90.60;;;;;;5026453;28;20041;-68
2023/02/02 10:52:00;;;;;;;2.05;1.00;;;9.70;90.60;;;;;;5030341;28;20083;-69
2023/02/02 10:54:57;;;;;;;1.77;1.00;;;9.70;90.50;;;;;;5029814;28;20510;-67
2023/02/02 10:57:44;;;;;;;2.60;0.80;;;9.70;90.50;;;;;;5028008;28;20064;-68
2023/02/02 11:00:28;;;;;;;0.77;0.77;;;9.80;90.50;;;;;;5029284;28;20503;-68
2023/02/02 11:02:54;;;;;;;4.90;1.10;;;9.80;90.40;;;;;;5027729;28;20022;-69
2023/02/02 11:08:13;;;;;;;1.45;0.90;;;9.80;90.40;;;;;;5027961;28;20032;-71
2023/02/02 11:10:38;;;;;;;7.70;1.48;;;9.80;90.40;;;;;;5023929;28;20488;-71
2023/02/02 11:13:06;;;;;;;1.77;1.27;;;9.90;90.40;;;;;;5031901;28;20026;-71
2023/02/02 11:15:32;;;;;;;2.50;0.82;;;9.90;90.70;;;;;;5028317;28;20025;-70
2023/02/02 11:18:28;;;;;;;0.70;0.70;;;9.90;90.40;;;;;;5029742;28;20428;-71
2023/02/02 11:20:55;;;;;;;1.02;0.80;;;9.90;90.40;;;;;;5025157;28;20032;-71
2023/02/02 11:23:21;;;;;;;0.80;0.80;;;10.00;90.40;;;;;;5029969;28;20029;-70
2023/02/02 11:25:59;;;;;;;3.33;1.05;;;10.00;90.40;;;;;;5027466;28;20033;-70
2023/02/02 11:28:30;;;;;;;1.63;0.98;;;10.00;90.40;;;;;;5023360;28;20423;-71
2023/02/02 11:30:56;;;;;;;3.00;1.10;;;10.00;90.40;;;;;;5025348;28;20467;-71
2023/02/02 11:33:34;;;;;;;0.73;0.73;;;10.00;90.40;;;;;;5029245;28;20427;-71
2023/02/02 11:36:20;;;;;;;1.48;0.95;;;9.90;90.40;;;;;;5026429;28;20041;-70
2023/02/02 11:38:46;;;;;;;0.70;0.70;;;9.90;90.40;;;;;;5025030;28;20036;-71
2023/02/02 11:41:14;;;;;;;1.13;0.80;;;9.90;90.50;;;;;;5025020;28;20033;-71
2023/02/02 11:43:46;;;;;;;1.73;1.00;;;10.00;90.40;;;;;;5025956;28;20100;-70
2023/02/02 11:46:22;;;;;;;1.05;0.73;;;10.00;90.40;;;;;;5025270;28;20052;-70
2023/02/02 11:48:59;;;;;;;1.90;0.88;;;10.00;90.40;;;;;;5022260;28;20598;-70
2023/02/02 11:51:27;;;;;;;1.55;1.10;;;10.00;90.40;;;;;;5026320;28;20026;-71
2023/02/02 11:54:06;;;;;;;2.05;0.85;;;10.00;90.40;;;;;;5027486;28;20052;-71
2023/02/02 11:56:35;;;;;;;4.97;1.58;;;10.00;90.50;;;;;;5025065;28;20021;-70
2023/02/02 11:59:02;;;;;;;1.33;0.95;;;10.00;90.40;;;;;;5023706;28;20136;-70
2023/02/02 12:01:34;;;;;;;3.50;1.00;;;10.00;90.40;;;;;;5027440;28;20092;-70
2023/02/02 12:04:19;;;;;;;1.20;0.88;;;10.00;90.40;;;;;;5031929;28;20370;-70
2023/02/02 12:06:45;;;;;;;2.28;0.77;;;10.00;90.40;;;;;;5022097;28;20112;-71
2023/02/02 12:09:14;;;;;;;1.85;0.88;;;10.00;90.40;;;;;;5024516;28;20163;-71
2023/02/02 12:12:03;;;;;;;1.35;0.80;;;10.00;90.40;;;;;;5025085;28;20414;-71
2023/02/02 12:15:10;;;;;;;1.65;0.98;;;10.00;90.40;;;;;;5028040;28;20104;-71
2023/02/02 12:17:43;;;;;;;0.85;0.85;;;9.90;90.30;;;;;;5026055;28;20029;-71
2023/02/02 12:20:12;;;;;;;1.27;0.80;;;9.90;90.40;;;;;;5023096;28;20036;-70
2023/02/02 12:22:55;;;;;;;3.05;1.10;;;9.90;90.40;;;;;;5027960;28;20087;-71
2023/02/02 12:25:52;;;;;;;2.17;0.90;;;9.90;90.40;;;;;;5033603;28;20563;-69
2023/02/02 12:28:43;;;;;;;2.85;1.05;;;9.90;90.40;;;;;;5029606;28;20045;-68
2023/02/02 12:31:25;;;;;;;2.08;1.33;;;10.00;90.40;;;;;;5026891;28;20369;-70
2023/02/02 12:34:00;;;;;;;0.60;0.60;;;9.90;90.30;;;;;;5028222;28;20017;-69
2023/02/02 12:36:28;;;;;;;1.90;0.80;;;9.90;90.30;;;;;;5030057;28;20520;-69
2023/02/02 12:39:00;;;;;;;1.35;0.70;;;9.90;90.30;;;;;;5027121;28;21121;-69
2023/02/02 12:41:51;;;;;;;1.20;0.80;;;9.90;90.30;;;;;;5028615;28;20033;-69
2023/02/02 12:44:21;;;;;;;2.47;0.80;;;9.90;90.30;;;;;;5026874;28;20045;-70
2023/02/02 12:47:05;;;;;;;0.77;0.75;;;9.90;90.40;;;;;;5022957;28;20064;-69
2023/02/02 12:50:02;;;;;;;1.48;0.77;;;9.90;90.40;;;;;;5024287;28;20088;-69
2023/02/02 12:52:58;;;;;;;1.27;0.85;;;9.90;90.40;;;;;;5025253;28;20511;-69
2023/02/02 12:56:00;;;;;;;2.05;0.68;;;9.80;90.40;;;;;;5025950;28;20030;-69
2023/02/02 12:58:45;;;;;;;0.82;0.70;;;9.90;90.40;;;;;;5023981;28;20571;-70
2023/02/02 13:01:49;;;;;;;1.38;0.90;;;9.80;90.40;;;;;;5023648;28;20451;-70
2023/02/02 13:04:27;;;;;;;1.23;0.77;;;9.90;90.40;;;;;;5024056;28;20142;-70
2023/02/02 13:07:20;;;;;;;0.90;0.60;;;9.80;90.40;;;;;;5026383;28;20030;-71
2023/02/02 13:09:58;;;;;;;1.73;0.70;;;9.90;90.50;;;;;;5022925;28;20062;-70
2023/02/02 13:12:27;;;;;;;0.90;0.70;;;9.80;90.40;;;;;;5039037;28;20033;-70
2023/02/02 13:15:00;;;;;;;1.00;0.90;;;9.80;90.40;;;;;;5027096;28;20029;-70
2023/02/02 13:17:39;;;;;;;1.38;0.70;;;9.70;90.40;;;;;;5024507;28;20084;-71
2023/02/02 13:20:33;;;;;;;2.55;0.80;;;9.70;90.50;;;;;;5022385;28;20025;-70
2023/02/02 13:23:05;;;;;;;3.95;1.00;;;9.60;90.60;;;;;;5026432;28;20036;-70
2023/02/02 13:25:59;;;;;;;1.65;0.75;;;9.60;90.60;;;;;;5030520;28;20069;-70
2023/02/02 13:28:52;;;;;;;2.35;0.68;;;9.60;90.60;;;;;;5027584;28;20123;-70
2023/02/02 13:31:29;;;;;;;;;;;9.60;90.70;;;;;;5020508;28;20033;-70